createdAt,value
2024-03-16T00:01:06.060Z,100900.06
2024-03-16T00:03:33.829Z,100904.16
2024-03-16T00:06:01.545Z,100902.53
2024-03-16T00:08:29.157Z,100900.88
2024-03-16T00:10:56.889Z,100903.34
2024-03-16T00:13:24.641Z,100906.91
2024-03-16T00:15:52.372Z,100905.78
2024-03-16T00:18:22.407Z,100904.63
2024-03-16T00:20:50.108Z,100902.69
2024-03-16T00:23:17.804Z,100910.66
2024-03-16T00:25:46.535Z,100911.16
2024-03-16T00:28:14.209Z,100912.78
2024-03-16T00:30:41.901Z,100913.09
2024-03-16T00:33:09.640Z,100912.78
2024-03-16T00:35:37.322Z,100916.34
2024-03-16T00:38:04.960Z,100916.34
2024-03-16T00:40:33.025Z,100918.78
2024-03-16T00:43:01.502Z,100920.44
2024-03-16T00:45:29.244Z,100918.78
2024-03-16T00:47:57.578Z,100922.06
2024-03-16T00:50:25.432Z,100923.50
2024-03-16T00:52:53.073Z,100929.53
2024-03-16T00:55:20.792Z,100927.56
2024-03-16T00:57:48.496Z,100932.28
2024-03-16T01:00:16.254Z,100927.41
2024-03-16T01:02:43.924Z,100933.25
2024-03-16T01:05:12.712Z,100929.50
2024-03-16T01:07:40.420Z,100935.69
2024-03-16T01:10:08.704Z,100930.47
2024-03-16T01:12:36.442Z,100939.09
2024-03-16T01:15:04.839Z,100936.66
2024-03-16T01:17:32.601Z,100936.13
2024-03-16T01:20:00.685Z,100943.13
2024-03-16T01:22:28.389Z,100937.94
2024-03-16T01:24:56.271Z,100948.16
2024-03-16T01:27:24.208Z,100942.63
2024-03-16T01:29:52.396Z,100950.44
2024-03-16T01:32:20.257Z,100948.47
2024-03-16T01:34:48.053Z,100944.72
2024-03-16T01:37:18.641Z,100946.66
2024-03-16T01:39:46.536Z,100951.38
2024-03-16T01:42:14.183Z,100954.16
2024-03-16T01:45:07.998Z,100956.09
2024-03-16T01:47:35.725Z,100956.75
2024-03-16T01:50:04.060Z,100957.56
2024-03-16T01:52:33.314Z,100954.00
2024-03-16T01:55:01.401Z,100955.63
2024-03-16T01:57:29.207Z,100967.78
2024-03-16T01:59:56.914Z,100965.03
2024-03-16T02:02:38.126Z,100965.53
2024-03-16T02:05:08.125Z,100960.63
2024-03-16T02:07:38.693Z,100967.00
2024-03-16T02:10:11.070Z,100969.56
2024-03-16T02:12:39.107Z,100972.66
2024-03-16T02:15:07.630Z,100984.00
2024-03-16T02:17:35.983Z,100988.22
2024-03-16T02:20:10.881Z,100982.50
2024-03-16T02:22:38.596Z,100987.22
2024-03-16T02:25:08.357Z,100990.78
2024-03-16T02:27:36.657Z,100990.31
2024-03-16T02:30:06.947Z,100990.63
2024-03-16T02:32:34.608Z,100990.94
2024-03-16T02:35:02.498Z,100992.06
2024-03-16T02:37:30.153Z,100993.22
2024-03-16T02:39:57.798Z,100984.13
2024-03-16T02:42:26.748Z,100991.88
2024-03-16T02:44:54.504Z,100985.56
2024-03-16T02:47:22.222Z,101002.94
2024-03-16T02:49:51.587Z,101000.50
2024-03-16T02:52:19.301Z,100996.44
2024-03-16T02:54:46.890Z,101006.66
2024-03-16T02:57:14.629Z,101014.09
2024-03-16T02:59:42.376Z,101018.19
2024-03-16T03:02:09.953Z,101020.94
2024-03-16T03:04:37.560Z,101025.66
2024-03-16T03:07:05.980Z,101023.22
2024-03-16T03:09:34.914Z,101026.59
2024-03-16T03:12:02.536Z,101042.03
2024-03-16T03:14:30.101Z,101034.25
2024-03-16T03:16:57.744Z,101033.75
2024-03-16T03:19:25.766Z,101052.59
2024-03-16T03:21:53.411Z,101052.06
2024-03-16T03:24:21.385Z,101061.19
2024-03-16T03:26:48.961Z,101067.81
2024-03-16T03:29:16.556Z,101082.56
2024-03-16T03:31:44.261Z,101076.66
2024-03-16T03:34:11.979Z,101086.81
2024-03-16T03:36:45.260Z,101089.22
2024-03-16T03:39:15.983Z,101098.25
2024-03-16T03:41:44.196Z,101101.72
2024-03-16T03:44:26.201Z,101099.69
2024-03-16T03:46:56.352Z,101117.16
2024-03-16T03:49:33.171Z,101122.16
2024-03-16T03:52:04.654Z,101137.50
2024-03-16T03:54:34.439Z,101134.03
2024-03-16T03:57:02.355Z,101131.06
2024-03-16T03:59:29.923Z,101141.91
2024-03-16T04:01:57.686Z,101142.19
2024-03-16T04:04:25.302Z,101137.81
2024-03-16T04:06:53.193Z,101148.94
2024-03-16T04:09:20.886Z,101151.53
2024-03-16T04:11:48.467Z,101162.84
2024-03-16T04:14:16.125Z,101168.97
2024-03-16T04:16:44.358Z,101168.44
2024-03-16T04:19:12.318Z,101171.00
2024-03-16T04:21:40.266Z,101181.81
2024-03-16T04:24:07.917Z,101185.22
2024-03-16T04:26:35.847Z,101192.94
2024-03-16T04:29:03.940Z,101194.38
2024-03-16T04:31:32.217Z,101195.78
2024-03-16T04:33:59.809Z,101193.03
2024-03-16T04:36:27.579Z,101205.78
2024-03-16T04:38:55.203Z,101217.41
2024-03-16T04:41:22.989Z,101211.69
2024-03-16T04:43:51.383Z,101218.31
2024-03-16T04:46:19.937Z,101223.59
2024-03-16T04:48:47.588Z,101237.69
2024-03-16T04:51:15.983Z,101235.03
2024-03-16T04:53:43.798Z,101241.16
2024-03-16T04:56:11.454Z,101250.31
2024-03-16T04:58:39.063Z,101251.72
2024-03-16T05:01:06.907Z,101270.25
2024-03-16T05:03:36.622Z,101268.41
2024-03-16T05:06:07.864Z,101267.38
2024-03-16T05:08:35.532Z,101283.66
2024-03-16T05:11:03.213Z,101290.59
2024-03-16T05:13:32.628Z,101286.50
2024-03-16T05:16:09.011Z,101293.72
2024-03-16T05:18:37.006Z,101292.38
2024-03-16T05:21:06.137Z,101294.00
2024-03-16T05:23:33.703Z,101306.44
2024-03-16T05:26:01.548Z,101304.59
2024-03-16T05:28:29.348Z,101315.06
2024-03-16T05:30:57.091Z,101319.53
2024-03-16T05:33:24.663Z,101320.41
2024-03-16T05:35:52.333Z,101322.63
2024-03-16T05:38:21.184Z,101332.00
2024-03-16T05:40:48.950Z,101347.41
2024-03-16T05:43:16.660Z,101342.19
2024-03-16T05:45:44.348Z,101351.56
2024-03-16T05:48:11.933Z,101362.88
2024-03-16T05:50:39.551Z,101363.16
2024-03-16T05:53:07.136Z,101374.97
2024-03-16T05:55:34.800Z,101373.34
2024-03-16T05:58:02.472Z,101377.22
2024-03-16T06:00:30.645Z,101385.47
2024-03-16T06:02:58.224Z,101395.16
2024-03-16T06:05:25.984Z,101399.53
2024-03-16T06:07:53.520Z,101408.91
2024-03-16T06:10:21.487Z,101414.69
2024-03-16T06:12:49.188Z,101416.91
2024-03-16T06:15:17.366Z,101419.97
2024-03-16T06:17:45.079Z,101431.25
2024-03-16T06:20:16.303Z,101439.78
2024-03-16T06:22:45.866Z,101448.66
2024-03-16T06:25:14.413Z,101454.72
2024-03-16T06:27:50.655Z,101460.78
2024-03-16T06:30:19.071Z,101466.06
2024-03-16T06:33:16.659Z,101474.03
2024-03-16T06:35:49.553Z,101486.66
2024-03-16T06:38:17.358Z,101481.97
2024-03-16T06:40:45.091Z,101487.44
2024-03-16T06:43:12.765Z,101498.97
2024-03-16T06:45:40.617Z,101495.94
2024-03-16T06:48:08.279Z,101506.41
2024-03-16T06:50:47.510Z,101525.06
2024-03-16T06:53:15.156Z,101518.50
2024-03-16T06:55:56.320Z,101532.56
2024-03-16T06:58:28.251Z,101542.50
2024-03-16T07:00:55.927Z,101547.47
2024-03-16T07:03:24.022Z,101562.84
2024-03-16T07:05:51.708Z,101570.03
2024-03-16T07:08:19.434Z,101575.88
2024-03-16T07:10:47.474Z,101577.28
2024-03-16T07:13:15.135Z,101589.44
2024-03-16T07:15:45.122Z,101594.97
2024-03-16T07:18:15.170Z,101610.91
2024-03-16T07:20:43.133Z,101616.72
2024-03-16T07:23:10.793Z,101621.13
2024-03-16T07:25:38.494Z,101618.69
2024-03-16T07:28:06.292Z,101633.25
2024-03-16T07:30:34.009Z,101632.41
2024-03-16T07:33:04.561Z,101639.53
2024-03-16T07:35:32.312Z,101657.94
2024-03-16T07:38:00.278Z,101663.41
2024-03-16T07:40:28.129Z,101675.50
2024-03-16T07:42:55.941Z,101677.66
2024-03-16T07:45:29.179Z,101674.34
2024-03-16T07:47:58.930Z,101677.91
2024-03-16T07:50:26.744Z,101672.97
2024-03-16T07:53:05.496Z,101677.41
2024-03-16T07:55:34.494Z,101684.78
2024-03-16T07:58:02.197Z,101687.53
2024-03-16T08:00:29.829Z,101691.09
2024-03-16T08:02:59.615Z,101699.06
2024-03-16T08:05:27.199Z,101704.28
2024-03-16T08:07:54.772Z,101715.56
2024-03-16T08:10:22.406Z,101722.41
2024-03-16T08:12:50.022Z,101727.06
2024-03-16T08:15:19.018Z,101735.56
2024-03-16T08:17:46.608Z,101737.75
2024-03-16T08:20:17.302Z,101743.22
2024-03-16T08:22:49.882Z,101749.81
2024-03-16T08:25:22.817Z,101760.78
2024-03-16T08:27:50.731Z,101756.06
2024-03-16T08:30:18.646Z,101768.69
2024-03-16T08:32:46.485Z,101767.25
2024-03-16T08:35:14.261Z,101770.22
2024-03-16T08:37:41.965Z,101777.88
2024-03-16T08:40:13.853Z,101779.75
2024-03-16T08:42:45.820Z,101792.66
2024-03-16T08:45:13.530Z,101787.97
2024-03-16T08:47:43.612Z,101800.94
2024-03-16T08:50:11.270Z,101797.06
2024-03-16T08:52:41.619Z,101792.38
2024-03-16T08:55:14.689Z,101787.97
2024-03-16T08:57:44.913Z,101803.94
2024-03-16T09:00:16.791Z,101800.03
2024-03-16T09:02:44.629Z,101803.88
2024-03-16T09:05:12.161Z,101801.31
2024-03-16T09:07:40.388Z,101815.59
2024-03-16T09:10:12.420Z,101806.97
2024-03-16T09:12:40.541Z,101811.34
2024-03-16T09:15:09.791Z,101805.47
2024-03-16T09:17:37.851Z,101807.63
2024-03-16T09:20:09.214Z,101825.81
2024-03-16T09:22:43.366Z,101827.13
2024-03-16T09:25:12.620Z,101832.59
2024-03-16T09:27:41.296Z,101841.44
2024-03-16T09:30:13.101Z,101830.34
2024-03-16T09:32:42.299Z,101836.38
2024-03-16T09:35:11.925Z,101843.84
2024-03-16T09:37:40.914Z,101851.00
2024-03-16T09:40:12.165Z,101855.44
2024-03-16T09:42:41.083Z,101867.88
